Time;durP1;ratioP1;P1;durP2;ratioP2;P2;SDS_P1;SDS_P2;PMS_P1;PMS_P2;Temp;Humidity;BMP_temperature;BMP_pressure;BME280_temperature;BME280_humidity;BME280_pressure;Samples;Min_cycle;Max_cycle;Signal;HPM_P1;HPM_P2
2024/01/17 00:01:18;;;;;;;3.42;2.70;;;15.40;49.80;;;;;;5052912;28;20171;-70
2024/01/17 00:03:44;;;;;;;3.15;2.80;;;15.40;49.80;;;;;;5052567;28;20250;-69
2024/01/17 00:06:10;;;;;;;4.38;2.90;;;15.40;49.80;;;;;;5052967;28;20337;-69
2024/01/17 00:08:35;;;;;;;2.63;2.42;;;15.40;50.00;;;;;;5052152;28;20183;-71
2024/01/17 00:11:01;;;;;;;3.42;2.53;;;15.30;50.00;;;;;;5051608;28;20221;-71
2024/01/17 00:13:26;;;;;;;3.10;2.80;;;15.30;50.00;;;;;;5052474;28;20211;-70
2024/01/17 00:15:52;;;;;;;3.20;2.88;;;15.30;49.80;;;;;;5052938;28;20203;-70
2024/01/17 00:18:17;;;;;;;3.75;2.47;;;15.30;49.90;;;;;;5051921;28;20237;-68
2024/01/17 00:20:43;;;;;;;3.65;2.97;;;15.30;49.80;;;;;;5052791;28;20581;-70
2024/01/17 00:23:08;;;;;;;3.15;2.80;;;15.30;49.90;;;;;;5052694;28;20246;-69
2024/01/17 00:25:34;;;;;;;3.28;3.03;;;15.30;49.80;;;;;;5051568;28;20540;-69
2024/01/17 00:28:00;;;;;;;3.78;2.88;;;15.30;49.90;;;;;;5052783;28;20589;-70
2024/01/17 00:30:25;;;;;;;2.97;2.50;;;15.20;49.80;;;;;;5052437;28;20171;-69
2024/01/17 00:32:51;;;;;;;4.05;3.10;;;15.20;49.80;;;;;;5051913;28;20210;-70
2024/01/17 00:35:16;;;;;;;3.20;2.90;;;15.20;49.80;;;;;;5052128;28;20543;-70
2024/01/17 00:37:42;;;;;;;3.28;2.83;;;15.20;49.70;;;;;;5052488;28;20171;-71
2024/01/17 00:40:08;;;;;;;3.80;3.22;;;15.20;49.70;;;;;;5051634;28;20171;-71
2024/01/17 00:42:34;;;;;;;2.95;2.50;;;15.20;49.80;;;;;;5052217;28;20241;-71
2024/01/17 00:45:00;;;;;;;3.50;2.83;;;15.20;49.80;;;;;;5052300;28;20635;-72
2024/01/17 00:47:25;;;;;;;3.42;3.13;;;15.20;49.80;;;;;;5051293;28;20220;-71
2024/01/17 00:49:51;;;;;;;2.97;2.70;;;15.20;49.80;;;;;;5052399;28;20171;-71
2024/01/17 00:52:16;;;;;;;3.45;2.90;;;15.10;49.80;;;;;;5051770;28;20223;-71
2024/01/17 00:54:42;;;;;;;3.47;2.90;;;15.20;49.90;;;;;;5051295;28;20225;-70
2024/01/17 00:57:07;;;;;;;4.15;3.20;;;15.10;50.40;;;;;;5052236;28;20171;-70
2024/01/17 00:59:33;;;;;;;3.15;2.85;;;15.10;49.80;;;;;;5051911;28;20549;-70
2024/01/17 01:02:01;;;;;;;3.72;2.97;;;15.10;49.80;;;;;;5051560;28;20174;-70
2024/01/17 01:04:27;;;;;;;4.30;3.03;;;15.10;49.90;;;;;;5051790;28;20182;-70
2024/01/17 01:06:53;;;;;;;2.85;2.55;;;15.10;49.80;;;;;;5051668;28;20842;-71
2024/01/17 01:09:18;;;;;;;3.00;2.72;;;15.10;49.80;;;;;;5051705;28;20198;-71
2024/01/17 01:11:44;;;;;;;2.90;2.60;;;15.10;49.80;;;;;;5052158;28;20669;-70
2024/01/17 01:14:09;;;;;;;3.65;3.08;;;15.10;49.90;;;;;;5051327;28;20681;-69
2024/01/17 01:16:35;;;;;;;4.05;3.08;;;15.10;49.90;;;;;;5051638;28;20183;-69
2024/01/17 01:19:00;;;;;;;4.90;3.10;;;15.10;49.90;;;;;;5052072;28;20171;-68
2024/01/17 01:21:26;;;;;;;3.95;2.92;;;15.10;49.90;;;;;;5053046;28;20175;-69
2024/01/17 01:23:51;;;;;;;3.45;2.92;;;15.10;49.90;;;;;;5056003;28;20514;-69
2024/01/17 01:26:17;;;;;;;3.88;2.58;;;15.00;49.80;;;;;;5055926;28;20660;-69
2024/01/17 01:28:42;;;;;;;3.63;3.08;;;15.00;49.90;;;;;;5055543;28;20653;-70
2024/01/17 01:31:09;;;;;;;3.58;3.00;;;15.00;49.90;;;;;;5056010;28;20591;-70
2024/01/17 01:33:35;;;;;;;3.75;3.00;;;15.00;49.90;;;;;;5055407;28;20246;-71
2024/01/17 01:36:00;;;;;;;2.78;2.47;;;15.00;49.90;;;;;;5055159;28;20214;-70
2024/01/17 01:38:26;;;;;;;4.32;3.25;;;15.00;49.90;;;;;;5055332;28;20285;-71
2024/01/17 01:40:51;;;;;;;3.45;2.60;;;15.00;49.90;;;;;;5055934;28;20262;-72
2024/01/17 01:43:18;;;;;;;4.03;3.58;;;15.00;49.90;;;;;;5054608;28;20283;-71
2024/01/17 01:45:47;;;;;;;3.30;2.80;;;15.00;49.90;;;;;;5055772;28;20175;-72
2024/01/17 01:48:13;;;;;;;3.55;2.58;;;15.00;49.90;;;;;;5054546;28;20186;-70
2024/01/17 01:50:38;;;;;;;3.58;2.65;;;14.90;49.90;;;;;;5054543;28;20546;-70
2024/01/17 01:53:04;;;;;;;3.92;3.08;;;15.00;49.90;;;;;;5054073;28;20275;-72
2024/01/17 01:55:30;;;;;;;3.42;3.03;;;14.90;49.90;;;;;;5054118;28;20584;-70
2024/01/17 01:57:56;;;;;;;3.60;2.55;;;14.90;49.90;;;;;;5054892;28;20193;-70
2024/01/17 02:00:22;;;;;;;3.30;2.65;;;14.90;49.90;;;;;;5053988;28;20225;-69
2024/01/17 02:02:48;;;;;;;3.90;2.88;;;14.90;49.90;;;;;;5054151;28;20163;-70
2024/01/17 02:05:14;;;;;;;4.50;2.75;;;14.90;49.90;;;;;;5053398;28;20171;-70
2024/01/17 02:07:39;;;;;;;3.70;2.70;;;14.90;49.90;;;;;;5053746;28;20262;-71
2024/01/17 02:10:05;;;;;;;3.08;2.72;;;14.90;50.00;;;;;;5055402;28;20273;-72
2024/01/17 02:12:31;;;;;;;2.92;2.53;;;14.90;49.90;;;;;;5054112;28;20275;-70
2024/01/17 02:14:57;;;;;;;2.85;2.65;;;14.90;49.90;;;;;;5053979;28;20185;-69
2024/01/17 02:17:22;;;;;;;2.83;2.50;;;14.80;49.90;;;;;;5054062;28;20258;-69
2024/01/17 02:19:48;;;;;;;2.95;2.53;;;14.80;49.90;;;;;;5053765;28;20221;-69
2024/01/17 02:22:13;;;;;;;3.65;2.88;;;14.80;49.80;;;;;;5054949;28;20171;-70
2024/01/17 02:24:39;;;;;;;3.17;2.88;;;14.80;49.90;;;;;;5053866;28;20171;-69
2024/01/17 02:27:04;;;;;;;3.58;2.80;;;14.80;49.80;;;;;;5054886;28;20194;-71
2024/01/17 02:29:30;;;;;;;3.17;2.72;;;14.80;49.80;;;;;;5054583;28;20179;-70
2024/01/17 02:31:55;;;;;;;3.03;2.60;;;14.80;50.00;;;;;;5052096;28;20199;-71
2024/01/17 02:34:21;;;;;;;3.42;3.00;;;14.80;50.00;;;;;;5052753;28;20290;-71
2024/01/17 02:36:47;;;;;;;3.53;3.08;;;14.80;49.90;;;;;;5053432;28;20262;-72
2024/01/17 02:39:15;;;;;;;4.15;2.78;;;14.80;49.90;;;;;;5053897;28;20258;-72
2024/01/17 02:41:44;;;;;;;3.40;3.10;;;14.70;49.90;;;;;;5054572;28;20229;-71
2024/01/17 02:44:09;;;;;;;2.92;2.72;;;14.70;49.80;;;;;;5054588;28;20190;-72
2024/01/17 02:46:35;;;;;;;3.33;2.80;;;14.70;49.90;;;;;;5053688;28;20183;-73
2024/01/17 02:49:00;;;;;;;3.65;2.97;;;14.70;49.90;;;;;;5054549;28;20179;-72
2024/01/17 02:51:26;;;;;;;2.83;2.60;;;14.70;50.00;;;;;;5053967;28;20245;-71
2024/01/17 02:53:51;;;;;;;3.30;3.00;;;14.70;49.90;;;;;;5053645;28;20210;-71
2024/01/17 02:56:17;;;;;;;3.38;2.72;;;14.70;49.90;;;;;;5053996;28;20171;-71
2024/01/17 02:58:43;;;;;;;3.20;2.88;;;14.70;49.90;;;;;;5054314;28;20175;-71
2024/01/17 03:01:08;;;;;;;3.03;2.67;;;14.70;49.90;;;;;;5053501;28;20198;-71
2024/01/17 03:03:37;;;;;;;4.28;2.85;;;14.60;49.80;;;;;;5053762;28;20182;-72
2024/01/17 03:06:02;;;;;;;3.42;2.85;;;14.70;50.00;;;;;;5054061;28;20664;-71
2024/01/17 03:08:28;;;;;;;2.83;2.50;;;14.60;49.90;;;;;;5053186;28;20206;-71
2024/01/17 03:10:54;;;;;;;3.40;3.10;;;14.60;49.70;;;;;;5054098;28;20545;-71
2024/01/17 03:13:19;;;;;;;3.60;3.30;;;14.70;49.80;;;;;;5053591;28;20252;-70
2024/01/17 03:15:45;;;;;;;2.90;2.63;;;14.60;49.80;;;;;;5053108;28;20194;-70
2024/01/17 03:18:13;;;;;;;3.50;3.00;;;14.60;49.80;;;;;;5053785;28;20192;-69
2024/01/17 03:20:42;;;;;;;3.63;3.03;;;14.60;49.70;;;;;;5052986;28;20253;-70
2024/01/17 03:23:07;;;;;;;3.30;3.03;;;14.60;49.90;;;;;;5053705;28;20660;-68
2024/01/17 03:25:33;;;;;;;3.40;2.75;;;14.60;49.90;;;;;;5053401;28;20209;-69
2024/01/17 03:27:59;;;;;;;2.80;2.45;;;14.60;49.80;;;;;;5052890;28;20186;-70
2024/01/17 03:30:24;;;;;;;3.10;2.75;;;14.60;49.80;;;;;;5053413;28;20171;-70
2024/01/17 03:32:50;;;;;;;2.90;2.67;;;14.60;49.80;;;;;;5053367;28;20217;-71
2024/01/17 03:35:15;;;;;;;3.67;2.80;;;14.60;49.90;;;;;;5052819;28;20182;-71
2024/01/17 03:37:41;;;;;;;3.55;2.70;;;14.60;49.70;;;;;;5053351;28;20179;-72
2024/01/17 03:40:07;;;;;;;3.42;3.05;;;14.50;49.70;;;;;;5053240;28;20224;-70
2024/01/17 03:42:32;;;;;;;4.25;3.00;;;14.50;49.80;;;;;;5052388;28;20187;-72
2024/01/17 03:44:58;;;;;;;3.00;2.72;;;14.60;49.90;;;;;;5053148;28;20163;-73
2024/01/17 03:47:23;;;;;;;3.05;2.67;;;14.50;49.80;;;;;;5052965;28;20233;-72
2024/01/17 03:49:49;;;;;;;3.35;2.83;;;14.50;49.80;;;;;;5052439;28;20175;-71
2024/01/17 03:52:15;;;;;;;3.22;2.70;;;14.50;49.80;;;;;;5052980;28;20226;-69
2024/01/17 03:54:41;;;;;;;3.47;2.60;;;14.50;49.90;;;;;;5052985;28;20750;-71
2024/01/17 03:57:08;;;;;;;2.67;2.33;;;14.50;49.90;;;;;;5052396;28;20179;-72
2024/01/17 03:59:34;;;;;;;3.97;2.85;;;14.50;49.90;;;;;;5052704;28;20203;-71
2024/01/17 04:01:59;;;;;;;3.53;3.20;;;14.50;49.90;;;;;;5052924;28;20673;-71
2024/01/17 04:04:25;;;;;;;3.97;2.95;;;14.50;49.90;;;;;;5052178;28;20207;-70
2024/01/17 04:06:50;;;;;;;3.95;3.10;;;14.50;50.00;;;;;;5053014;28;20238;-72
2024/01/17 04:09:16;;;;;;;2.90;2.70;;;14.50;50.00;;;;;;5052501;28;20189;-71
2024/01/17 04:11:41;;;;;;;4.82;3.17;;;14.40;49.90;;;;;;5052185;28;20481;-71
2024/01/17 04:14:07;;;;;;;3.55;3.10;;;14.40;50.00;;;;;;5052647;28;20199;-71
2024/01/17 04:16:35;;;;;;;3.28;2.97;;;14.40;50.10;;;;;;5052301;28;20174;-70
2024/01/17 04:19:01;;;;;;;3.55;2.50;;;14.40;50.10;;;;;;5052153;28;20183;-70
2024/01/17 04:21:27;;;;;;;3.40;2.88;;;14.40;50.10;;;;;;5052171;28;20295;-69
2024/01/17 04:23:52;;;;;;;3.03;2.70;;;14.40;50.20;;;;;;5051798;28;20233;-69
2024/01/17 04:26:24;;;;;;;3.35;3.05;;;14.40;50.20;;;;;;5052302;28;20217;-70
2024/01/17 04:28:50;;;;;;;4.22;2.80;;;14.40;50.10;;;;;;5052461;28;20257;-70
2024/01/17 04:31:23;;;;;;;3.78;2.97;;;14.40;50.00;;;;;;5051374;28;20207;-72
2024/01/17 04:33:48;;;;;;;3.22;2.92;;;14.40;50.10;;;;;;5052475;28;20293;-72
2024/01/17 04:36:17;;;;;;;4.50;3.08;;;14.40;50.00;;;;;;5052464;28;20202;-71
2024/01/17 04:38:43;;;;;;;3.42;2.85;;;14.40;50.00;;;;;;5051646;28;20228;-73
2024/01/17 04:41:15;;;;;;;3.67;3.38;;;14.30;50.10;;;;;;5052320;28;20254;-72
2024/01/17 04:43:41;;;;;;;3.78;3.22;;;14.30;50.00;;;;;;5052300;28;20213;-72
2024/01/17 04:46:13;;;;;;;2.92;2.67;;;14.30;50.10;;;;;;5051746;28;20261;-72
2024/01/17 04:48:42;;;;;;;3.17;2.85;;;14.30;50.10;;;;;;5052264;28;20185;-72
2024/01/17 04:51:09;;;;;;;2.97;2.70;;;14.30;50.10;;;;;;5052083;28;20230;-72
2024/01/17 04:53:35;;;;;;;3.35;2.83;;;14.30;50.10;;;;;;5050982;28;20692;-71
2024/01/17 04:56:02;;;;;;;3.22;2.80;;;14.30;50.20;;;;;;5051399;28;20170;-71
2024/01/17 04:58:27;;;;;;;3.53;2.80;;;14.30;50.20;;;;;;5051530;28;20539;-72
2024/01/17 05:00:53;;;;;;;3.30;2.92;;;14.30;50.30;;;;;;5051193;28;20182;-71
2024/01/17 05:03:19;;;;;;;2.95;2.63;;;14.30;50.20;;;;;;5051606;28;20187;-72
2024/01/17 05:05:44;;;;;;;3.40;3.10;;;14.30;50.10;;;;;;5051843;28;20190;-71
2024/01/17 05:08:11;;;;;;;2.80;2.60;;;14.30;50.10;;;;;;5051238;28;20269;-71
2024/01/17 05:10:36;;;;;;;3.90;3.05;;;14.30;50.30;;;;;;5051544;28;20629;-71
2024/01/17 05:13:02;;;;;;;3.25;2.95;;;14.20;50.20;;;;;;5051559;28;20257;-70
2024/01/17 05:15:27;;;;;;;2.97;2.63;;;14.20;50.20;;;;;;5051182;28;20540;-71
2024/01/17 05:17:54;;;;;;;3.78;2.65;;;14.20;50.10;;;;;;5051989;28;20175;-69
2024/01/17 05:20:20;;;;;;;3.22;2.92;;;14.20;50.20;;;;;;5050961;28;20548;-69
2024/01/17 05:22:48;;;;;;;2.75;2.55;;;14.20;50.20;;;;;;5051847;28;20626;-69
2024/01/17 05:25:13;;;;;;;3.50;2.90;;;14.20;50.20;;;;;;5051657;28;20633;-68
2024/01/17 05:27:39;;;;;;;2.67;2.47;;;14.20;50.20;;;;;;5050873;28;20206;-69
2024/01/17 05:30:05;;;;;;;2.90;2.70;;;14.20;50.20;;;;;;5051835;28;20262;-68
2024/01/17 05:32:34;;;;;;;2.78;2.47;;;14.20;50.20;;;;;;5051176;28;20575;-70
2024/01/17 05:34:59;;;;;;;3.42;2.72;;;14.20;50.30;;;;;;5050807;28;20640;-70
2024/01/17 05:37:25;;;;;;;2.97;2.60;;;14.20;51.00;;;;;;5051352;28;20172;-70
2024/01/17 05:39:50;;;;;;;2.97;2.72;;;14.20;50.30;;;;;;5051499;28;20210;-71
2024/01/17 05:42:16;;;;;;;2.90;2.70;;;14.20;50.30;;;;;;5050733;28;20190;-70
2024/01/17 05:44:41;;;;;;;3.38;2.58;;;14.20;50.50;;;;;;5051659;28;20182;-72
2024/01/17 05:47:07;;;;;;;3.10;2.63;;;14.20;50.70;;;;;;5051540;28;20175;-70
2024/01/17 05:49:33;;;;;;;3.22;2.40;;;14.20;50.70;;;;;;5050509;28;20179;-71
2024/01/17 05:51:58;;;;;;;3.15;2.80;;;14.20;50.40;;;;;;5051423;28;20226;-71
2024/01/17 05:54:24;;;;;;;3.05;2.45;;;14.40;50.40;;;;;;5050979;28;20708;-71
2024/01/17 05:56:55;;;;;;;2.35;2.15;;;14.50;50.30;;;;;;5050951;28;20539;-72
2024/01/17 05:59:21;;;;;;;2.75;2.40;;;14.60;50.30;;;;;;5051088;28;20643;-71
2024/01/17 06:01:46;;;;;;;2.70;2.50;;;14.70;50.30;;;;;;5051275;28;20261;-71
2024/01/17 06:04:12;;;;;;;2.40;2.20;;;14.80;50.20;;;;;;5050683;28;20290;-70
2024/01/17 06:06:37;;;;;;;2.92;2.55;;;14.90;50.00;;;;;;5051727;28;20191;-71
2024/01/17 06:09:05;;;;;;;3.15;2.30;;;15.10;49.90;;;;;;5054979;28;20556;-72
2024/01/17 06:11:30;;;;;;;3.22;2.92;;;15.20;49.70;;;;;;5053913;28;20179;-71
2024/01/17 06:13:56;;;;;;;2.90;2.60;;;15.40;49.60;;;;;;5055056;28;20233;-70
2024/01/17 06:16:22;;;;;;;2.53;2.33;;;15.50;49.50;;;;;;5054036;28;20179;-70
2024/01/17 06:18:47;;;;;;;2.78;2.53;;;15.50;49.20;;;;;;5054750;28;20225;-69
2024/01/17 06:21:13;;;;;;;2.40;2.20;;;15.60;49.20;;;;;;5054845;28;20194;-69
2024/01/17 06:23:39;;;;;;;2.85;2.40;;;15.70;49.10;;;;;;5053675;28;20254;-69
2024/01/17 06:26:04;;;;;;;3.40;2.55;;;15.70;49.10;;;;;;5054702;28;20600;-69
2024/01/17 06:28:30;;;;;;;2.40;2.17;;;15.70;49.10;;;;;;5054584;28;20182;-70
2024/01/17 06:30:55;;;;;;;3.03;2.33;;;15.70;49.10;;;;;;5054102;28;20258;-71
2024/01/17 06:33:21;;;;;;;3.47;2.78;;;15.70;49.00;;;;;;5054300;28;20199;-72
2024/01/17 06:35:49;;;;;;;3.88;2.50;;;15.70;49.00;;;;;;5054438;28;20606;-71
2024/01/17 06:38:15;;;;;;;3.15;2.53;;;15.70;49.00;;;;;;5053563;28;20651;-70
2024/01/17 06:40:40;;;;;;;2.60;2.40;;;15.70;49.00;;;;;;5054804;28;20203;-73
2024/01/17 06:43:06;;;;;;;2.90;2.40;;;15.70;49.10;;;;;;5054746;28;20179;-73
2024/01/17 06:45:31;;;;;;;2.38;2.13;;;15.70;49.10;;;;;;5053653;28;20167;-72
2024/01/17 06:47:59;;;;;;;2.42;2.22;;;15.70;49.10;;;;;;5054281;28;20178;-71
2024/01/17 06:50:24;;;;;;;2.50;2.30;;;15.70;49.10;;;;;;5054014;28;20175;-70
2024/01/17 06:52:53;;;;;;;3.22;2.33;;;15.80;49.20;;;;;;5053288;28;20285;-72
2024/01/17 06:55:19;;;;;;;2.67;2.47;;;15.90;49.00;;;;;;5054013;28;20170;-71
2024/01/17 06:57:45;;;;;;;2.90;2.00;;;16.10;48.90;;;;;;5054293;28;20186;-71
2024/01/17 07:00:13;;;;;;;2.00;1.80;;;16.20;48.60;;;;;;5053463;28;20178;-70
2024/01/17 07:02:39;;;;;;;2.33;2.00;;;16.30;48.40;;;;;;5053721;28;20167;-71
2024/01/17 07:05:05;;;;;;;2.20;1.95;;;16.40;48.40;;;;;;5053975;28;20626;-71
2024/01/17 07:07:31;;;;;;;2.75;2.20;;;16.40;48.40;;;;;;5052853;28;20263;-71
2024/01/17 07:09:57;;;;;;;2.72;2.25;;;16.40;48.40;;;;;;5054059;28;20266;-71
2024/01/17 07:12:22;;;;;;;2.42;2.22;;;16.50;48.30;;;;;;5053759;28;20175;-70
2024/01/17 07:14:49;;;;;;;3.15;2.50;;;16.40;48.30;;;;;;5052944;28;20215;-70
2024/01/17 07:17:15;;;;;;;2.42;2.22;;;16.40;48.20;;;;;;5053614;28;20610;-70
2024/01/17 07:19:40;;;;;;;2.40;2.20;;;16.50;48.30;;;;;;5052570;28;20176;-70
2024/01/17 07:22:06;;;;;;;3.13;2.55;;;16.50;48.10;;;;;;5053530;28;20179;-70
2024/01/17 07:24:32;;;;;;;2.42;2.22;;;16.60;48.10;;;;;;5053490;28;20175;-70
2024/01/17 07:26:57;;;;;;;2.65;2.03;;;16.60;48.10;;;;;;5053056;28;20194;-69
2024/01/17 07:29:23;;;;;;;2.55;2.33;;;16.70;48.00;;;;;;5053446;28;20171;-70
2024/01/17 07:31:50;;;;;;;2.55;2.35;;;16.60;48.00;;;;;;5053562;28;20171;-70
2024/01/17 07:34:16;;;;;;;2.53;2.20;;;16.60;48.00;;;;;;5052426;28;20213;-71
2024/01/17 07:36:41;;;;;;;2.38;2.17;;;16.70;48.00;;;;;;5053356;28;20574;-71
2024/01/17 07:39:10;;;;;;;3.08;2.78;;;16.70;48.00;;;;;;5053508;28;20171;-71
2024/01/17 07:41:36;;;;;;;2.63;2.28;;;16.70;48.00;;;;;;5052277;28;20191;-71
2024/01/17 07:44:02;;;;;;;2.45;2.25;;;16.70;48.00;;;;;;5053158;28;20638;-71
2024/01/17 07:46:27;;;;;;;1.92;1.83;;;16.80;48.00;;;;;;5052937;28;20183;-71
2024/01/17 07:48:53;;;;;;;2.58;2.38;;;16.80;48.00;;;;;;5052409;28;20195;-72
2024/01/17 07:51:19;;;;;;;2.22;1.90;;;16.80;47.90;;;;;;5052554;28;20218;-70
2024/01/17 07:53:44;;;;;;;1.85;1.75;;;16.80;48.00;;;;;;5053147;28;20268;-71
2024/01/17 07:56:13;;;;;;;2.78;2.58;;;16.80;47.90;;;;;;5052420;28;20586;-70
2024/01/17 07:58:39;;;;;;;2.10;1.90;;;16.90;47.80;;;;;;5052675;28;20229;-71
2024/01/17 08:01:05;;;;;;;3.00;2.30;;;16.90;47.90;;;;;;5052838;28;20175;-71
2024/01/17 08:03:31;;;;;;;2.55;2.17;;;16.90;47.80;;;;;;5051917;28;20203;-70
2024/01/17 08:05:56;;;;;;;2.28;2.10;;;16.90;47.90;;;;;;5052807;28;20195;-72
2024/01/17 08:08:22;;;;;;;2.72;2.35;;;16.90;47.80;;;;;;5052433;28;20259;-72
2024/01/17 08:10:47;;;;;;;2.28;2.03;;;16.90;47.80;;;;;;5051988;28;20179;-71
2024/01/17 08:13:13;;;;;;;2.53;2.30;;;17.00;47.80;;;;;;5052721;28;20281;-71
2024/01/17 08:15:38;;;;;;;2.10;2.00;;;17.00;47.80;;;;;;5052330;28;20520;-70
2024/01/17 08:18:04;;;;;;;2.20;2.00;;;17.00;47.80;;;;;;5052012;28;20760;-70
2024/01/17 08:20:31;;;;;;;2.47;2.28;;;17.00;47.80;;;;;;5052219;28;20590;-70
2024/01/17 08:22:57;;;;;;;1.83;1.67;;;17.00;47.80;;;;;;5052534;28;20330;-69
2024/01/17 08:25:25;;;;;;;2.35;2.15;;;17.00;47.80;;;;;;5052044;28;20180;-70
2024/01/17 08:27:50;;;;;;;2.38;2.17;;;17.00;47.70;;;;;;5052541;28;20178;-70
2024/01/17 08:30:16;;;;;;;2.20;1.77;;;17.10;47.70;;;;;;5050680;28;20198;-71
2024/01/17 08:32:41;;;;;;;2.40;2.10;;;17.10;47.60;;;;;;5052317;28;20690;-72
2024/01/17 08:35:07;;;;;;;2.10;1.90;;;17.10;47.60;;;;;;5052280;28;20237;-71
2024/01/17 08:37:34;;;;;;;2.55;1.92;;;17.10;47.60;;;;;;5051426;28;20216;-72
2024/01/17 08:39:59;;;;;;;2.20;2.00;;;17.10;47.50;;;;;;5052431;28;20265;-72
2024/01/17 08:42:25;;;;;;;2.25;2.10;;;17.10;47.60;;;;;;5052139;28;20270;-74
2024/01/17 08:44:50;;;;;;;2.20;2.00;;;17.20;47.60;;;;;;5051730;28;20175;-73
2024/01/17 08:47:16;;;;;;;3.53;2.25;;;17.20;47.60;;;;;;5051926;28;20391;-72
2024/01/17 08:49:42;;;;;;;2.60;2.15;;;17.20;47.60;;;;;;5052109;28;20209;-71
2024/01/17 08:52:07;;;;;;;2.40;2.20;;;17.20;47.60;;;;;;5051285;28;20255;-71
2024/01/17 08:54:34;;;;;;;2.30;2.10;;;17.20;47.50;;;;;;5051904;28;20309;-71
2024/01/17 08:57:01;;;;;;;2.30;2.10;;;17.30;47.60;;;;;;5052178;28;20220;-73
2024/01/17 08:59:26;;;;;;;2.30;2.10;;;17.30;47.50;;;;;;5051129;28;20186;-71
2024/01/17 09:01:52;;;;;;;1.85;1.75;;;17.30;47.60;;;;;;5051991;28;20175;-71
2024/01/17 09:04:19;;;;;;;2.03;1.88;;;17.30;47.50;;;;;;5051679;28;20525;-70
2024/01/17 09:06:44;;;;;;;2.55;2.35;;;17.30;47.60;;;;;;5051437;28;20179;-72
2024/01/17 09:09:12;;;;;;;2.05;1.85;;;17.30;47.60;;;;;;5052064;28;20192;-72
2024/01/17 09:11:38;;;;;;;2.85;1.90;;;17.40;47.50;;;;;;5051722;28;20210;-71
2024/01/17 09:14:04;;;;;;;2.25;2.05;;;17.30;47.50;;;;;;5051099;28;20254;-71
2024/01/17 09:16:30;;;;;;;2.38;2.00;;;17.30;47.60;;;;;;5051397;28;20634;-71
2024/01/17 09:18:56;;;;;;;2.75;1.98;;;17.30;47.50;;;;;;5051771;28;20596;-69
2024/01/17 09:21:22;;;;;;;2.55;2.10;;;17.30;47.50;;;;;;5050908;28;20229;-69
2024/01/17 09:23:47;;;;;;;2.42;1.98;;;17.30;47.60;;;;;;5050579;28;20538;-69
2024/01/17 09:26:13;;;;;;;2.58;2.00;;;17.30;47.60;;;;;;5051856;28;20179;-70
2024/01/17 09:28:38;;;;;;;2.85;2.17;;;17.20;47.60;;;;;;5050851;28;20183;-71
2024/01/17 09:31:04;;;;;;;1.98;1.77;;;17.10;47.60;;;;;;5051738;28;20256;-72
2024/01/17 09:33:29;;;;;;;2.53;1.85;;;17.00;47.80;;;;;;5050770;28;20206;-72
2024/01/17 09:35:55;;;;;;;2.40;2.20;;;17.00;47.90;;;;;;5051923;28;20171;-71
2024/01/17 09:38:20;;;;;;;2.72;2.03;;;16.90;48.00;;;;;;5051549;28;20175;-71
2024/01/17 09:40:49;;;;;;;3.00;1.92;;;16.90;48.10;;;;;;5051134;28;20172;-73
2024/01/17 09:43:18;;;;;;;2.28;2.13;;;16.90;48.10;;;;;;5053726;28;20171;-73
2024/01/17 09:45:44;;;;;;;2.28;2.08;;;16.90;48.10;;;;;;5055571;28;20182;-72
2024/01/17 09:48:14;;;;;;;2.40;1.83;;;16.90;48.10;;;;;;5054787;28;20183;-71
2024/01/17 09:50:40;;;;;;;2.40;2.17;;;16.90;48.20;;;;;;5054456;28;20183;-71
2024/01/17 09:53:10;;;;;;;2.58;2.10;;;16.90;48.10;;;;;;5053971;28;20306;-72
2024/01/17 09:55:37;;;;;;;2.30;2.10;;;16.90;48.20;;;;;;5053318;28;20562;-68
2024/01/17 09:58:03;;;;;;;2.25;2.05;;;16.90;48.10;;;;;;5054254;28;20167;-70
2024/01/17 10:00:28;;;;;;;2.17;1.98;;;16.90;48.10;;;;;;5053753;28;20580;-70
2024/01/17 10:02:54;;;;;;;2.40;2.15;;;16.90;48.10;;;;;;5053281;28;20229;-71
2024/01/17 10:05:22;;;;;;;2.40;2.00;;;16.90;48.20;;;;;;5053655;28;20233;-72
2024/01/17 10:07:49;;;;;;;2.42;2.22;;;16.90;48.20;;;;;;5053997;28;20171;-71
2024/01/17 10:10:14;;;;;;;2.45;2.25;;;16.90;48.10;;;;;;5053323;28;20624;-70
2024/01/17 10:12:42;;;;;;;2.30;2.10;;;16.90;48.20;;;;;;5053710;28;20257;-70
2024/01/17 10:15:12;;;;;;;3.83;2.08;;;16.90;48.10;;;;;;5054883;28;20646;-69
2024/01/17 10:17:37;;;;;;;2.20;2.00;;;16.90;48.20;;;;;;5054189;28;20195;-69
2024/01/17 10:20:04;;;;;;;3.63;2.63;;;16.90;48.20;;;;;;5053789;28;20182;-68
2024/01/17 10:22:31;;;;;;;2.67;2.30;;;16.90;48.10;;;;;;5054676;28;20266;-70
2024/01/17 10:24:57;;;;;;;2.50;2.30;;;16.90;48.20;;;;;;5054745;28;20207;-70
2024/01/17 10:27:22;;;;;;;2.40;2.03;;;16.90;48.20;;;;;;5053289;28;20209;-70
2024/01/17 10:29:48;;;;;;;2.80;2.35;;;16.90;48.20;;;;;;5053207;28;20203;-71
2024/01/17 10:32:13;;;;;;;3.45;2.03;;;16.90;48.20;;;;;;5054822;28;20635;-70
2024/01/17 10:34:39;;;;;;;2.33;2.00;;;16.90;48.20;;;;;;5053032;28;20298;-71
2024/01/17 10:37:05;;;;;;;2.25;1.80;;;16.90;48.20;;;;;;5052863;28;20678;-72
2024/01/17 10:39:30;;;;;;;2.30;2.10;;;16.90;48.20;;;;;;5053151;28;20178;-71
2024/01/17 10:41:58;;;;;;;3.70;2.30;;;16.90;48.20;;;;;;5054605;28;20552;-72
2024/01/17 10:44:25;;;;;;;2.17;1.83;;;16.90;48.20;;;;;;5053796;28;20183;-72
2024/01/17 10:46:50;;;;;;;2.45;2.25;;;16.90;48.30;;;;;;5054783;28;20183;-72
2024/01/17 10:49:17;;;;;;;2.78;2.20;;;16.90;48.20;;;;;;5054214;28;20232;-72
2024/01/17 10:51:47;;;;;;;2.53;2.10;;;16.90;48.20;;;;;;5053747;28;20326;-70
2024/01/17 10:54:12;;;;;;;2.30;2.10;;;16.90;48.20;;;;;;5052155;28;20290;-71
2024/01/17 10:56:38;;;;;;;2.88;2.00;;;16.90;48.30;;;;;;5052875;28;20179;-72
2024/01/17 10:59:05;;;;;;;2.38;2.17;;;16.90;48.20;;;;;;5052594;28;20179;-71
2024/01/17 11:01:30;;;;;;;3.40;2.15;;;16.90;48.30;;;;;;5053894;28;20634;-71
2024/01/17 11:03:56;;;;;;;1.83;1.73;;;16.90;48.30;;;;;;5054225;28;20183;-70
2024/01/17 11:06:21;;;;;;;2.30;2.10;;;16.90;48.20;;;;;;5051957;28;20281;-71
2024/01/17 11:08:47;;;;;;;2.17;1.98;;;16.90;48.20;;;;;;5052888;28;20197;-72
2024/01/17 11:11:12;;;;;;;2.33;2.00;;;16.90;48.20;;;;;;5052715;28;20317;-71
2024/01/17 11:13:38;;;;;;;2.10;1.88;;;16.90;48.20;;;;;;5051946;28;20221;-71
2024/01/17 11:16:05;;;;;;;2.40;2.20;;;16.90;48.20;;;;;;5052967;28;20266;-70
2024/01/17 11:18:30;;;;;;;2.20;2.00;;;16.90;48.30;;;;;;5051511;28;20190;-70
2024/01/17 11:20:56;;;;;;;2.92;2.38;;;16.90;48.30;;;;;;5052139;28;20168;-70
2024/01/17 11:23:29;;;;;;;2.78;2.00;;;16.90;48.30;;;;;;5052300;28;20181;-69
2024/01/17 11:26:04;;;;;;;2.45;2.25;;;16.90;48.30;;;;;;5053072;28;20182;-70
2024/01/17 11:28:38;;;;;;;2.65;2.33;;;16.90;48.30;;;;;;5052246;28;20224;-71
2024/01/17 11:31:16;;;;;;;2.05;1.92;;;16.90;48.30;;;;;;5052563;28;20794;-71
2024/01/17 11:33:43;;;;;;;2.40;2.10;;;16.90;48.30;;;;;;5052950;28;20203;-71
2024/01/17 11:36:09;;;;;;;2.67;1.98;;;16.90;48.30;;;;;;5052409;28;20638;-70
2024/01/17 11:38:34;;;;;;;2.63;2.42;;;16.90;48.30;;;;;;5051821;28;20194;-71
2024/01/17 11:41:08;;;;;;;2.53;1.98;;;16.80;48.20;;;;;;5051545;28;20179;-73
2024/01/17 11:43:38;;;;;;;2.88;2.63;;;16.80;48.30;;;;;;5053350;28;20266;-71
2024/01/17 11:46:07;;;;;;;2.67;2.40;;;16.80;48.40;;;;;;5052331;28;20174;-71
2024/01/17 11:48:38;;;;;;;2.33;2.10;;;16.80;48.30;;;;;;5052376;28;20175;-72
2024/01/17 11:51:06;;;;;;;2.65;2.05;;;16.70;48.40;;;;;;5053381;28;20285;-70
2024/01/17 11:53:33;;;;;;;2.63;2.33;;;16.70;48.40;;;;;;5053039;28;20297;-71
2024/01/17 11:56:05;;;;;;;2.95;2.17;;;16.60;48.30;;;;;;5051334;28;20175;-70
2024/01/17 11:58:47;;;;;;;2.30;2.10;;;16.60;48.40;;;;;;5052904;28;20215;-70
2024/01/17 12:01:21;;;;;;;2.30;2.10;;;16.60;48.50;;;;;;5052341;28;20202;-71
2024/01/17 12:03:47;;;;;;;2.13;1.95;;;16.60;48.60;;;;;;5053256;28;20214;-70
2024/01/17 12:06:13;;;;;;;3.08;2.17;;;16.60;48.60;;;;;;5052843;28;20210;-71
2024/01/17 12:08:38;;;;;;;2.05;1.95;;;16.60;48.50;;;;;;5050737;28;20187;-73
2024/01/17 12:11:06;;;;;;;2.35;2.15;;;16.70;48.60;;;;;;5051748;28;20600;-71
2024/01/17 12:13:32;;;;;;;2.72;2.10;;;16.60;48.60;;;;;;5052474;28;20214;-71
2024/01/17 12:15:57;;;;;;;2.38;2.17;;;16.60;48.60;;;;;;5052055;28;20527;-69
2024/01/17 12:18:26;;;;;;;2.78;1.92;;;16.70;48.60;;;;;;5051234;28;20171;-70
2024/01/17 12:20:54;;;;;;;2.70;2.22;;;16.70;48.50;;;;;;5052939;28;20199;-70
2024/01/17 12:23:20;;;;;;;3.22;2.28;;;16.70;48.50;;;;;;5051915;28;20244;-70
2024/01/17 12:25:46;;;;;;;2.58;2.28;;;16.60;48.40;;;;;;5051635;28;20186;-69
2024/01/17 12:28:19;;;;;;;2.33;2.08;;;16.60;48.40;;;;;;5052636;28;20167;-69
2024/01/17 12:31:00;;;;;;;2.90;2.50;;;16.60;48.60;;;;;;5052201;28;20183;-71
2024/01/17 12:33:33;;;;;;;2.50;2.30;;;16.50;48.70;;;;;;5052248;28;20226;-72
2024/01/17 12:36:00;;;;;;;2.33;2.13;;;16.50;48.80;;;;;;5052604;28;20186;-71
2024/01/17 12:38:27;;;;;;;2.33;2.13;;;16.40;48.70;;;;;;5051655;28;20206;-71
2024/01/17 12:40:53;;;;;;;2.33;2.03;;;16.40;49.00;;;;;;5052516;28;20258;-73
2024/01/17 12:43:19;;;;;;;2.47;2.28;;;16.40;48.80;;;;;;5051764;28;20254;-72